Weather at Fly Sin City #1 Heliport

Public forecast

Using degrees Fahrenheit for public forecast. Weather courtesy of forecast.io.

Closest aviation weather report (METAR) to Fly Sin City #1 Heliport

Closest report is Henderson Executive Airport, 21.6 nm (39.9 km) ENE. Retrieved 2021/06/20 08:56 UTC (20 minutes ago):

KHND 200856Z AUTO 19013KT 10SM CLR 35/04 A2973 RMK AO2 SLP038 T03500039 51005

Closest aviation forecast (TAF) to Fly Sin City #1 Heliport

Closest forecast is Henderson Executive Airport, 21.6 nm (39.9 km) ENE. Retrieved 2021/06/20 06:22 UTC (3 hours ago):

TAF KHND 200520Z 2006/2106 27008KT P6SM SKC FM200800 21009KT P6SM SKC FM201900 25016G26KT P6SM FEW150 FM202200 23022G32KT P6SM FEW150 FM210300 20014G24KT P6SM FEW150